Homer, OH (43027)

5:34 AM EST on December 19, 2014 (GMT -0500)
Homer | Change Station
CLOSE
Current Station
Personal Weather Station
Location: Utica, OH
Elevation: 1033 ft
Nearby Weather Stations

Elev 1033 ft 40.25 °N, 82.56 °W | Updated 3 minutes ago

Overcast
Overcast
26.8 °F
Feels Like 27 °F
N
1.0
Wind Variable Wind from West
Gusts 6.0 mph

Today
High -- | Low -- °F
--% Chance of Precip.
Yesterday
High -- | Low -- °F
Precip. -- in
7:48 AM 5:06 PM
Waning Crescent, 8% visible
Pressure 30.18 in
Visibility 5.0 miles
Clouds Mostly Cloudy 800 ft
Mostly Cloudy 1300 ft
Overcast 2100 ft
Windchill 27 °F
Dew Point 24 °F
Humidity 90%
Rainfall -999.00 in
Snow Depth Not available.
UV 0 out of 12
Pollen .10 out of 12
Air Quality Not available.
Flu Activity Not available.
METAR K4I3 191016Z AUTO 26004KT 5SM BR BKN008 BKN013 OVC021 M03/M04 A3018 RMK AO2

More Conditions Fewer Conditions

Pressure 30.18 in
Visibility 5.0 miles
Clouds Mostly Cloudy 800 ft
Mostly Cloudy 1300 ft
Overcast 2100 ft
Windchill 27 °F
Dew Point 24 °F
Humidity 90%
Rainfall -999.00 in
Snow Depth Not available.
UV 0 out of 12
Pollen .10 out of 12
Air Quality Not available.
Flu Activity Not available.
METAR K4I3 191016Z AUTO 26004KT 5SM BR BKN008 BKN013 OVC021 M03/M04 A3018 RMK AO2

More Conditions Fewer Conditions

10-Day Weather Forecast

Almanac

Astronomy

Dec. 19, 2014 Rise Set
Actual Time
Civil Twilight
Nautical Twilight
Astronomical Twilight
Moon
Length of Visible Light
Length of Day
Tomorrow will be .
, % of the Moon is Illuminated

Today's Extremes

State Highs State Lows

Community

WunderPhotos

Upload Photos

1,778,966 photos uploaded!

WunderBlogs® & News

Nearby

Air Quality

  Air Quality AQ Index Pollutant
Not available.

Snow Depth

Station Depth Elevation

Earthquake Activity

City Distance Mag. Time & Date
Minimum magnitude displayed is 2.5.

Coastal Water Temperatures

Place Temperature

Nearby Weather Stations